Latest Coastal Weather Observations for Bedout Island

IDW60701

Issued at 11:25 pm WST Thursday 31 July 2014 (issued every 10 minutes, with the page automatically refreshed every 10 minutes)

About coastal observations | Map of coastal stations | Coastal observations for WA | Marine services | Other Formats
Station Details ID: 004100 Name: BEDOUT ISLAND Lat: -19.59 Lon: 119.10 Height: 8.6 m
Data from the previous 72 hours. | See also: Recent months for locations in Western Australia
Date/Time
WST
Temp

°C
Wind Pressure Rain
since 9am
mm
Weather Cloud Vis
km
Sea
Height
m
Swell
Dir
 
Speed
knots
Gust
knots
hPa Trend Height
m
Period
s
Dir
31/11:00pm 20.8 S 11 14 1017.0 - - - - - - - - -
31/10:30pm 21.1 S 9 16 1017.0 - - - - - - - - -
31/10:00pm 20.7 WNW 6 8 1016.7 - - - - - - - - -
31/09:30pm 20.7 NW 7 8 1016.7 - - - - - - - - -
31/09:00pm 20.7 NW 6 7 1016.5 - - - - - - - - -
31/08:30pm 20.7 NW 8 8 1016.5 - - - - - - - - -
31/08:00pm 20.9 WNW 6 7 1016.5 - - - - - - - - -
31/07:30pm 21.2 NW 6 7 1016.3 - - - - - - - - -
31/07:00pm 21.2 NW 7 7 1015.8 - - - - - - - - -
31/06:30pm 21.6 NW 5 6 1015.6 - - - - - - - - -
31/06:00pm 21.6 NW 6 7 1015.6 - - - - - - - - -
31/05:30pm 23.5 W 4 5 1015.5 - - - - - - - - -
31/05:00pm 24.5 W 4 5 1015.3 - - - - - - - - -
31/04:30pm 24.9 N 3 4 1015.1 - - - - - - - - -
31/04:00pm 25.7 NNE 2 4 1014.9 - - - - - - - - -
31/03:30pm 26.0 NNE 4 6 1014.8 - - - - - - - - -
31/03:00pm 25.7 E 4 5 1014.9 - - - - - - - - -
31/02:30pm 26.6 SE 5 6 1015.0 - - - - - - - - -
31/02:00pm 26.2 SE 5 6 1015.4 - - - - - - - - -
31/01:30pm 26.5 E 6 7 1015.9 - - - - - - - - -
31/01:00pm 25.9 ENE 7 7 1016.4 - - - - - - - - -
31/12:30pm 25.9 ENE 7 8 1016.8 - - - - - - - - -
31/12:00pm 26.6 ENE 8 10 1017.2 - - - - - - - - -
31/11:30am 25.9 ENE 10 12 1017.6 - - - - - - - - -
31/11:00am 25.7 E 13 15 1017.8 - - - - - - - - -
31/10:30am 25.3 ENE 14 16 1018.0 - - - - - - - - -
31/10:00am 25.4 E 13 15 1017.9 - - - - - - - - -
31/09:30am 25.0 ENE 14 16 1017.9 - - - - - - - - -
31/09:00am 24.6 ENE 14 19 1017.9 - - - - - - - - -
31/08:30am 23.7 ENE 13 18 1017.7 - - - - - - - - -
31/08:00am 22.9 SE 13 15 1017.4 - - - - - - - - -
31/07:30am 22.1 SE 10 13 1017.3 - - - - - - - - -
31/07:00am 21.3 SE 12 14 1017.1 - - - - - - - - -
31/06:30am 20.5 SE 13 15 1016.8 - - - - - - - - -
31/06:00am 20.8 SSE 12 15 1016.6 - - - - - - - - -
31/05:30am 20.4 ESE 12 14 1016.5 - - - - - - - - -
31/05:00am 21.0 SE 14 17 1016.2 - - - - - - - - -
31/04:30am 20.7 ESE 8 11 1016.0 - - - - - - - - -
31/04:00am 20.6 ESE 7 9 1016.1 - - - - - - - - -
31/03:30am 20.4 SE 9 10 1016.2 - - - - - - - - -
31/03:00am 20.6 SSE 12 14 1016.0 - - - - - - - - -
31/02:30am 20.4 SSE 11 13 1016.1 - - - - - - - - -
31/02:00am 20.3 SSE 10 13 1016.3 - - - - - - - - -
31/01:30am 20.2 S 10 13 1016.4 - - - - - - - - -
31/01:00am 20.2 S 8 9 1016.5 - - - - - - - - -
31/12:30am 20.4 SSE 6 7 1016.6 - - - - - - - - -
31/12:00am 20.4 S 6 8 1016.6 - - - - - - - - -
 
Date/Time
WST
Temp

°C
Wind Pressure Rain
since 9am
mm
Weather Cloud Vis
km
Sea
Height
m
Swell
Dir
 
Speed
knots
Gust
knots
hPa Trend Height
m
Period
s
Dir
30/11:30pm 20.5 S 6 7 1016.7 - - - - - - - - -
30/11:00pm 20.5 SSW 6 7 1016.8 - - - - - - - - -
30/10:30pm 20.5 S 8 9 1016.9 - - - - - - - - -
30/10:00pm 20.5 S 7 9 1017.0 - - - - - - - - -
30/09:30pm 20.9 S 8 9 1016.8 - - - - - - - - -
30/09:00pm 22.1 E 4 11 1016.7 - - - - - - - - -
30/08:30pm 23.0 ENE 2 5 1016.7 - - - - - - - - -
30/08:00pm 22.1 ENE 4 5 1016.6 - - - - - - - - -
30/07:30pm 22.2 NE 3 4 1016.4 - - - - - - - - -
30/07:00pm 21.9 NNE 6 7 1016.2 - - - - - - - - -
30/06:30pm 21.9 NNE 7 8 1015.9 - - - - - - - - -
30/06:00pm 22.0 NE 6 7 1015.7 - - - - - - - - -
30/05:30pm 22.8 NE 7 8 1015.7 - - - - - - - - -
30/05:00pm 23.8 NE 7 8 1015.6 - - - - - - - - -
30/04:30pm 24.4 NE 8 9 1015.5 - - - - - - - - -
30/04:00pm 24.8 NE 9 11 1015.4 - - - - - - - - -
30/03:30pm 25.2 ENE 9 10 1015.5 - - - - - - - - -
30/03:00pm 25.5 ENE 7 9 1015.6 - - - - - - - - -
30/02:30pm 26.0 ENE 8 10 1015.9 - - - - - - - - -
30/02:00pm 26.3 ENE 10 12 1016.1 - - - - - - - - -
30/01:30pm 25.8 ENE 12 13 1016.3 - - - - - - - - -
30/01:00pm 26.1 E 12 14 1016.8 - - - - - - - - -
30/12:30pm 25.9 E 13 15 1017.4 - - - - - - - - -
30/12:00pm 25.7 E 15 17 1017.6 - - - - - - - - -
30/11:30am 25.7 E 14 16 1018.1 - - - - - - - - -
30/11:00am 25.2 E 15 18 1018.3 - - - - - - - - -
30/10:30am 25.0 E 15 18 1018.7 - - - - - - - - -
30/10:00am 24.5 E 15 18 1018.7 - - - - - - - - -
30/09:30am 24.1 E 16 19 1018.7 - - - - - - - - -
30/09:00am 24.6 E 13 16 1018.7 - - - - - - - - -
30/08:30am 23.2 E 16 18 1018.7 - - - - - - - - -
30/08:00am 22.6 E 11 13 1018.7 - - - - - - - - -
30/07:30am 22.1 ESE 14 16 1018.4 - - - - - - - - -
30/07:00am 21.8 ESE 12 14 1018.1 - - - - - - - - -
30/06:30am 21.6 E 13 15 1017.8 - - - - - - - - -
30/06:00am 21.8 ESE 16 18 1017.2 - - - - - - - - -
30/05:30am 22.1 E 16 19 1017.0 - - - - - - - - -
30/05:00am 22.5 E 18 21 1016.5 - - - - - - - - -
30/04:30am 21.9 E 11 13 1016.7 - - - - - - - - -
30/04:00am 22.0 E 14 16 1016.6 - - - - - - - - -
30/03:30am 21.9 E 13 15 1016.6 - - - - - - - - -
30/03:00am 21.8 ESE 14 15 1016.4 - - - - - - - - -
30/02:30am 21.5 ESE 14 16 1016.6 - - - - - - - - -
30/02:00am 21.9 SE 15 18 1016.8 - - - - - - - - -
30/01:30am 22.2 SSE 13 15 1017.0 - - - - - - - - -
30/01:00am 21.9 SE 14 15 1017.1 - - - - - - - - -
30/12:30am 21.8 SE 10 12 1017.1 - - - - - - - - -
30/12:00am 22.5 SE 11 13 1016.9 - - - - - - - - -
 
Date/Time
WST
Temp

°C
Wind Pressure Rain
since 9am
mm
Weather Cloud Vis
km
Sea
Height
m
Swell
Dir
 
Speed
knots
Gust
knots
hPa Trend Height
m
Period
s
Dir
29/11:30pm 22.3 NNE 5 9 1017.4 - - - - - - - - -
29/11:00pm 22.4 S 7 8 1017.4 - - - - - - - - -
29/10:30pm 21.8 S 8 9 1017.5 - - - - - - - - -
29/10:00pm 22.6 S 6 7 1017.4 - - - - - - - - -
29/09:30pm 22.3 S 9 10 1017.5 - - - - - - - - -
29/09:00pm 22.3 S 10 11 1017.3 - - - - - - - - -
29/08:30pm 22.2 S 9 10 1017.2 - - - - - - - - -
29/08:00pm 22.2 S 10 11 1017.1 - - - - - - - - -
29/07:30pm 22.5 S 8 9 1017.0 - - - - - - - - -
29/07:00pm 22.9 S 8 9 1016.8 - - - - - - - - -
29/06:30pm 22.8 SE 7 7 1016.6 - - - - - - - - -
29/06:00pm 23.2 SE 8 8 1016.3 - - - - - - - - -
29/05:30pm 23.6 SSE 9 9 1016.2 - - - - - - - - -
29/05:00pm 24.6 SSE 10 10 1016.1 - - - - - - - - -
29/04:30pm 25.8 SSE 11 11 1015.8 - - - - - - - - -
29/04:00pm 26.1 SSE 10 11 1015.8 - - - - - - - - -
29/03:30pm 26.4 SSE 10 11 1015.9 - - - - - - - - -
29/03:00pm 26.4 SSE 9 10 1015.9 - - - - - - - - -
29/02:30pm 26.4 SE 10 11 1016.0 - - - - - - - - -
29/02:00pm 26.6 SE 11 12 1016.2 - - - - - - - - -
29/01:30pm 26.8 SSE 9 11 1016.5 - - - - - - - - -
29/01:00pm 26.3 SE 10 11 1016.8 - - - - - - - - -
29/12:30pm 25.6 SE 11 12 1017.4 - - - - - - - - -
29/12:00pm 25.5 SE 10 12 1017.7 - - - - - - - - -
29/11:30am 25.4 SE 10 11 1018.2 - - - - - - - - -
29/11:00am 24.9 ESE 11 13 1018.6 - - - - - - - - -
29/10:30am 24.5 ESE 14 17 1018.8 - - - - - - - - -
29/10:00am 24.5 ESE 14 17 1018.8 - - - - - - - - -
29/09:30am 23.8 E 17 20 1019.0 - - - - - - - - -
29/09:00am 23.6 ESE 16 19 1018.5 - - - - - - - - -
29/08:30am 22.9 ESE 18 20 1018.5 - - - - - - - - -
29/08:00am 22.6 ESE 16 19 1018.2 - - - - - - - - -
29/07:30am 21.9 ESE 14 18 1017.7 - - - - - - - - -
29/07:00am 21.2 ESE 11 13 1017.3 - - - - - - - - -
29/06:30am 21.2 ESE 12 13 1017.0 - - - - - - - - -
29/06:00am 21.2 SE 12 14 1016.5 - - - - - - - - -
29/05:30am 21.0 SE 12 14 1016.4 - - - - - - - - -
29/05:00am 20.9 SE 12 13 1016.4 - - - - - - - - -
29/04:30am 20.7 SE 11 14 1016.4 - - - - - - - - -
29/04:00am 20.9 SE 11 12 1016.4 - - - - - - - - -
29/03:30am 20.8 SSE 11 13 1016.4 - - - - - - - - -
29/03:00am 20.7 SSE 11 13 1016.3 - - - - - - - - -
29/02:30am 21.2 S 10 11 1016.6 - - - - - - - - -
29/02:00am 21.0 S 10 11 1016.7 - - - - - - - - -
29/01:30am 21.3 S 9 11 1016.9 - - - - - - - - -
29/01:00am 21.3 S 9 10 1016.9 - - - - - - - - -
29/12:30am 21.8 SSW 8 12 1017.0 - - - - - - - - -
29/12:00am 21.7 SSW 12 13 1016.9 - - - - - - - - -
 
Date/Time
WST
Temp

°C
Wind Pressure Rain
since 9am
mm
Weather Cloud Vis
km
Sea
Height
m
Swell
Dir
 
Speed
knots
Gust
knots
hPa Trend Height
m
Period
s
Dir
28/11:30pm 21.7 SW 10 11 1017.2 - - - - - - - - -

Other Formats:

Comma delimited format used in spreadsheet applications
http://www.bom.gov.au/fwo/IDW60701/IDW60701.94310.axf

JavaScript Object Notation format (JSON) in row-major order
http://www.bom.gov.au/fwo/IDW60701/IDW60701.94310.json